Time;durP1;ratioP1;P1;durP2;ratioP2;P2;SDS_P1;SDS_P2;PMS_P1;PMS_P2;Temp;Humidity;BMP_temperature;BMP_pressure;BME280_temperature;BME280_humidity;BME280_pressure;Samples;Min_cycle;Max_cycle;Signal;HPM_P1;HPM_P2
2022/02/05 00:02:37;;;;;;;28.80;3.20;;;;;;;5.26;73.65;101475.78;5035374;28;20045;-53
2022/02/05 00:05:03;;;;;;;36.05;3.15;;;;;;;5.28;74.30;101476.53;5046078;28;20102;-54
2022/02/05 00:07:32;;;;;;;18.60;2.63;;;;;;;5.27;73.85;101480.19;5052486;28;20094;-55
2022/02/05 00:39:47;;;;;;;20.35;2.35;;;;;;;4.98;74.03;101498.66;5039312;28;20039;-54
2022/02/05 00:42:26;;;;;;;17.33;2.67;;;;;;;4.96;74.34;101498.78;5047396;28;20029;-55
2022/02/05 00:44:51;;;;;;;22.90;2.70;;;;;;;4.94;74.61;101510.56;5042395;28;20409;-54
2022/02/05 00:47:17;;;;;;;24.25;3.05;;;;;;;4.92;74.69;101501.84;5051529;28;20048;-55
2022/02/05 00:49:44;;;;;;;24.77;2.70;;;;;;;4.90;74.69;101511.78;5044623;28;20095;-56
2022/02/05 00:52:13;;;;;;;24.95;3.55;;;;;;;4.92;74.42;101508.00;5037217;28;20366;-55
2022/02/05 00:54:41;;;;;;;24.30;2.95;;;;;;;4.93;73.56;101524.88;5045058;28;20032;-54
2022/02/05 00:57:20;;;;;;;29.83;3.15;;;;;;;4.92;73.75;101521.34;5034223;28;20052;-53
2022/02/05 00:59:45;;;;;;;27.98;2.45;;;;;;;4.93;73.99;101520.38;5033250;28;20072;-56
2022/02/05 01:02:11;;;;;;;17.30;2.50;;;;;;;4.90;74.53;101525.09;5033982;28;20029;-54
2022/02/05 01:04:36;;;;;;;20.08;2.28;;;;;;;4.92;74.21;101528.50;5039317;28;20112;-52
2022/02/05 01:07:01;;;;;;;24.40;2.40;;;;;;;4.92;74.68;101537.34;5053179;28;20115;-54
2022/02/05 01:09:27;;;;;;;25.17;2.50;;;;;;;4.92;75.59;101544.50;5046308;28;20031;-56
2022/02/05 01:11:54;;;;;;;18.20;2.35;;;;;;;4.92;75.08;101545.34;5042659;28;20025;-55
2022/02/05 01:14:25;;;;;;;15.55;1.83;;;;;;;4.90;75.04;101547.31;5036824;28;20527;-55
2022/02/05 01:17:07;;;;;;;24.30;2.53;;;;;;;4.90;75.01;101542.00;5052807;28;20029;-52
2022/02/05 01:22:09;;;;;;;27.77;2.53;;;;;;;4.92;74.90;101545.34;5041135;28;20037;-55
2022/02/05 01:24:35;;;;;;;15.80;2.50;;;;;;;4.94;75.01;101558.56;5038454;28;20039;-53
2022/02/05 01:27:07;;;;;;;20.23;2.28;;;;;;;4.95;75.11;101561.13;5052435;28;20120;-54
2022/02/05 01:32:21;;;;;;;16.83;2.40;;;;;;;4.93;75.65;101564.91;5044719;28;20094;-55
2022/02/05 01:34:58;;;;;;;16.20;1.92;;;;;;;4.93;75.50;101557.72;5044943;28;20034;-54
2022/02/05 02:12:12;;;;;;;20.10;2.67;;;;;;;4.83;76.05;101616.31;5041987;28;20087;-56
2022/02/05 02:25:03;;;;;;;25.98;2.92;;;;;;;4.77;76.98;101626.66;5042773;28;20167;-54
2022/02/05 02:32:37;;;;;;;12.45;2.17;;;;;;;4.76;76.09;101635.59;5048810;28;20044;-55
2022/02/05 02:35:08;;;;;;;27.50;3.17;;;;;;;4.75;75.62;101640.09;5046161;28;20045;-55
2022/02/05 02:37:45;;;;;;;32.00;2.92;;;;;;;4.76;75.74;101630.28;5036757;28;20037;-55
2022/02/05 02:40:25;;;;;;;12.30;1.92;;;;;;;4.74;76.24;101640.22;5044204;28;20473;-55
2022/02/05 02:42:56;;;;;;;32.92;3.05;;;;;;;4.71;76.63;101643.97;5041050;28;20493;-55
2022/02/05 02:45:21;;;;;;;20.35;2.70;;;;;;;4.71;77.05;101632.47;5044599;28;20053;-54
2022/02/05 02:47:47;;;;;;;24.35;3.55;;;;;;;4.73;76.14;101646.53;5041700;28;20049;-54
2022/02/05 02:50:31;;;;;;;16.85;2.10;;;;;;;4.72;76.35;101642.19;5039473;28;20082;-54
2022/02/05 02:58:28;;;;;;;23.75;3.00;;;;;;;4.73;77.78;101659.84;5036197;28;20492;-57
2022/02/05 03:00:57;;;;;;;16.58;2.38;;;;;;;4.74;77.73;101658.88;5035790;28;20113;-54
2022/02/05 03:03:22;;;;;;;28.80;2.42;;;;;;;4.74;77.78;101653.53;5037582;28;20032;-54
2022/02/05 03:05:47;;;;;;;20.50;2.72;;;;;;;4.72;77.78;101661.69;5041864;28;20049;-55
2022/02/05 03:08:13;;;;;;;27.58;3.70;;;;;;;4.72;77.94;101658.19;5036337;28;20029;-55
2022/02/05 03:10:40;;;;;;;19.70;2.53;;;;;;;4.65;78.71;101662.28;5055112;28;20029;-54
2022/02/05 03:13:05;;;;;;;16.75;1.95;;;;;;;4.64;78.70;101668.63;5042405;28;20025;-54
2022/02/05 03:15:37;;;;;;;29.65;2.72;;;;;;;4.65;78.77;101664.97;5043789;28;20474;-55
2022/02/05 03:18:26;;;;;;;20.25;2.67;;;;;;;4.64;78.77;101668.63;5039561;28;20036;-55
2022/02/05 03:20:49;;;;;;;18.73;2.22;;;;;;;4.60;79.08;101676.84;5033396;28;20042;-54
2022/02/05 03:23:14;;;;;;;34.08;3.05;;;;;;;4.59;79.00;101672.47;5041165;28;20393;-55
2022/02/05 03:25:40;;;;;;;30.15;3.88;;;;;;;4.57;79.09;101689.56;5040568;28;20038;-55
2022/02/05 03:28:05;;;;;;;20.30;2.25;;;;;;;4.59;78.83;101680.47;5047357;28;20159;-55
2022/02/05 03:30:30;;;;;;;30.13;3.38;;;;;;;4.56;79.30;101680.72;5033346;28;20184;-53
2022/02/05 03:32:58;;;;;;;38.60;3.53;;;;;;;4.57;78.95;101685.09;5045907;28;20033;-56
2022/02/05 03:35:23;;;;;;;22.67;2.90;;;;;;;4.58;78.82;101686.78;5047726;28;20037;-55
2022/02/05 03:37:48;;;;;;;21.85;3.15;;;;;;;4.56;78.47;101691.41;5052758;28;20021;-55
2022/02/05 03:40:14;;;;;;;24.02;2.95;;;;;;;4.56;78.28;101679.88;5034210;28;20038;-54
2022/02/05 03:42:39;;;;;;;24.63;3.05;;;;;;;4.53;78.05;101688.97;5035463;28;20029;-53
2022/02/05 03:45:08;;;;;;;27.60;4.90;;;;;;;4.53;78.70;101685.44;5045883;28;20028;-54
2022/02/05 03:47:34;;;;;;;17.73;2.58;;;;;;;4.52;78.71;101687.25;5036619;28;20075;-54
2022/02/05 03:49:59;;;;;;;31.80;3.20;;;;;;;4.53;78.20;101694.31;5033283;28;20037;-53
2022/02/05 03:52:25;;;;;;;17.08;2.58;;;;;;;4.49;77.84;101694.66;5051229;28;20070;-53
2022/02/05 03:54:50;;;;;;;20.63;2.67;;;;;;;4.48;78.17;101706.31;5047745;28;20029;-54
2022/02/05 03:57:16;;;;;;;29.85;2.70;;;;;;;4.47;78.06;101717.91;5053752;28;20029;-54
2022/02/05 03:59:41;;;;;;;23.92;2.78;;;;;;;4.49;78.51;101718.66;5046863;28;20032;-56
2022/02/05 04:02:06;;;;;;;30.75;2.67;;;;;;;4.50;78.91;101704.34;5043846;28;20032;-55
2022/02/05 04:04:32;;;;;;;24.90;2.78;;;;;;;4.54;78.58;101712.00;5047288;28;20480;-55
2022/02/05 04:06:57;;;;;;;16.17;2.42;;;;;;;4.58;78.25;101709.91;5047622;28;20406;-54
2022/02/05 04:09:28;;;;;;;23.55;2.88;;;;;;;4.58;78.22;101713.44;5049283;28;20075;-53
2022/02/05 04:15:58;;;;;;;28.90;3.13;;;;;;;4.57;78.76;101716.22;5033088;28;20091;-55
2022/02/05 04:17:29;;;;;;;22.55;2.80;;;;;;;4.58;79.45;101718.78;5049255;28;20128;-54
2022/02/05 04:19:54;;;;;;;18.35;2.42;;;;;;;4.61;79.14;101728.38;5052790;28;20493;-55
2022/02/05 04:22:20;;;;;;;15.48;2.63;;;;;;;4.57;80.11;101738.41;5036083;28;20396;-56
2022/02/05 04:24:45;;;;;;;26.48;4.57;;;;;;;4.61;80.39;101728.38;5047286;28;20112;-55
2022/02/05 04:27:11;;;;;;;22.48;2.47;;;;;;;4.64;80.58;101732.59;5053504;28;20384;-55
2022/02/05 04:29:37;;;;;;;23.90;3.17;;;;;;;4.58;80.57;101740.13;5039499;28;20030;-55
2022/02/05 04:32:03;;;;;;;22.98;2.40;;;;;;;4.61;80.24;101734.53;5033499;28;20035;-55
2022/02/05 04:34:29;;;;;;;24.90;2.72;;;;;;;4.60;80.22;101740.81;5034328;28;20033;-54
2022/02/05 04:36:54;;;;;;;33.08;2.67;;;;;;;4.60;79.91;101739.97;5041373;28;20044;-55
2022/02/05 04:39:21;;;;;;;24.60;2.83;;;;;;;4.63;79.60;101753.06;5033354;28;20033;-55
2022/02/05 04:41:55;;;;;;;24.90;3.15;;;;;;;4.60;79.69;101743.47;5040123;28;20026;-55
2022/02/05 04:44:44;;;;;;;29.35;2.80;;;;;;;4.58;80.21;101745.44;5033686;28;20392;-55
2022/02/05 04:52:54;;;;;;;26.05;2.58;;;;;;;4.57;78.51;101751.72;5042681;28;20098;-54
2022/02/05 04:55:42;;;;;;;24.38;2.58;;;;;;;4.57;77.97;101756.22;5037338;28;20087;-54
2022/02/05 05:04:02;;;;;;;17.83;1.92;;;;;;;4.51;78.51;101762.88;5036412;28;20056;-55
2022/02/05 05:21:54;;;;;;;17.27;2.30;;;;;;;4.34;77.88;101769.50;5049421;28;20143;-53
2022/02/05 05:24:19;;;;;;;20.13;2.28;;;;;;;4.32;78.36;101771.47;5039903;28;20111;-53
2022/02/05 05:26:45;;;;;;;28.80;3.10;;;;;;;4.34;78.17;101776.66;5046730;28;20056;-54
2022/02/05 05:29:10;;;;;;;28.05;2.75;;;;;;;4.32;78.44;101778.63;5030921;28;20030;-53
2022/02/05 05:31:36;;;;;;;27.27;2.88;;;;;;;4.29;78.80;101779.69;5040902;28;20120;-53
2022/02/05 05:34:01;;;;;;;21.38;3.05;;;;;;;4.28;78.79;101774.47;5033140;28;20112;-54
2022/02/05 05:36:26;;;;;;;24.23;2.83;;;;;;;4.27;79.39;101778.13;5035539;28;20069;-53
2022/02/05 05:38:58;;;;;;;18.90;2.53;;;;;;;4.25;78.98;101769.38;5048057;28;20025;-54
2022/02/05 05:41:23;;;;;;;24.45;2.35;;;;;;;4.25;79.01;101782.72;5049387;28;20090;-55
2022/02/05 05:44:06;;;;;;;16.90;3.58;;;;;;;4.25;78.93;101783.56;5046634;28;20025;-55
2022/02/05 05:49:33;;;;;;;19.38;2.55;;;;;;;4.27;78.84;101783.44;5029323;28;20125;-55
2022/02/05 05:51:58;;;;;;;15.75;2.25;;;;;;;4.23;79.05;101771.31;5035366;28;20314;-53
2022/02/05 05:54:23;;;;;;;18.48;3.55;;;;;;;4.21;79.25;101779.41;5029336;28;20025;-54
2022/02/05 05:56:51;;;;;;;19.65;2.83;;;;;;;4.20;78.99;101777.72;5029806;28;20034;-54
2022/02/05 05:59:16;;;;;;;23.58;2.95;;;;;;;4.20;79.45;101772.41;5029055;28;20173;-51
2022/02/05 06:01:42;;;;;;;28.63;2.55;;;;;;;4.19;79.66;101781.38;5030143;28;20022;-53
2022/02/05 06:04:07;;;;;;;21.13;2.40;;;;;;;4.18;79.86;101769.00;5030050;28;20099;-53
2022/02/05 06:06:32;;;;;;;20.33;2.78;;;;;;;4.15;79.99;101780.72;5028512;28;20148;-54
2022/02/05 06:08:59;;;;;;;38.50;2.45;;;;;;;4.14;80.24;101776.38;5028742;28;20568;-54
2022/02/05 06:11:26;;;;;;;33.75;2.92;;;;;;;4.18;80.29;101780.50;5029153;28;20113;-52
2022/02/05 06:13:51;;;;;;;23.60;2.90;;;;;;;4.21;80.55;101782.06;5037811;28;20033;-52
2022/02/05 06:16:19;;;;;;;29.33;2.95;;;;;;;4.24;80.20;101789.00;5039880;28;20404;-54
2022/02/05 06:18:44;;;;;;;33.17;2.55;;;;;;;4.30;80.40;101799.19;5049210;28;20127;-54
2022/02/05 06:21:10;;;;;;;27.85;2.90;;;;;;;4.37;80.26;101784.41;5048244;28;20017;-53
2022/02/05 06:23:35;;;;;;;30.98;2.42;;;;;;;4.42;80.06;101792.91;5040756;28;20030;-52
2022/02/05 06:26:00;;;;;;;21.95;2.60;;;;;;;4.45;80.10;101789.16;5029071;28;20026;-53
2022/02/05 06:28:26;;;;;;;13.55;2.38;;;;;;;4.47;79.77;101790.72;5029618;28;20030;-53
2022/02/05 06:30:51;;;;;;;46.72;3.80;;;;;;;4.51;79.99;101789.53;5048410;28;20036;-53
2022/02/05 06:33:17;;;;;;;23.38;2.85;;;;;;;4.53;80.35;101795.63;5032231;28;20525;-53
2022/02/05 06:35:43;;;;;;;26.88;2.75;;;;;;;4.54;80.64;101805.28;5048544;28;20500;-54
2022/02/05 06:38:08;;;;;;;29.42;3.63;;;;;;;4.54;80.61;101799.97;5026823;28;20029;-51
2022/02/05 06:40:34;;;;;;;16.15;2.70;;;;;;;4.53;80.30;101800.94;5030433;28;20021;-52
2022/02/05 06:42:59;;;;;;;27.65;2.88;;;;;;;4.53;79.40;101805.41;5029799;28;20048;-53
2022/02/05 06:45:25;;;;;;;23.02;2.28;;;;;;;4.53;79.07;101808.94;5030117;28;20041;-54
2022/02/05 06:47:50;;;;;;;22.05;3.60;;;;;;;4.48;79.56;101805.78;5032154;28;20394;-52
2022/02/05 06:50:15;;;;;;;15.57;2.00;;;;;;;4.44;79.40;101804.31;5030162;28;20025;-54
2022/02/05 06:52:41;;;;;;;19.05;2.40;;;;;;;4.43;79.68;101804.44;5041183;28;20059;-55
2022/02/05 06:55:07;;;;;;;28.27;2.30;;;;;;;4.39;79.48;101806.47;5041896;28;20582;-53
2022/02/05 06:57:33;;;;;;;25.73;4.03;;;;;;;4.37;79.54;101816.41;5047333;28;20021;-54
2022/02/05 06:59:58;;;;;;;26.75;2.58;;;;;;;4.34;79.57;101809.47;5046660;28;20028;-54
2022/02/05 07:02:24;;;;;;;34.08;2.88;;;;;;;4.36;78.94;101818.22;5040802;28;20087;-53
2022/02/05 07:04:49;;;;;;;13.75;2.47;;;;;;;4.35;79.20;101829.00;5027254;28;20576;-51
2022/02/05 07:07:14;;;;;;;23.67;2.85;;;;;;;4.36;79.16;101822.69;5028719;28;20516;-52
2022/02/05 07:09:40;;;;;;;18.70;2.90;;;;;;;4.35;79.15;101834.34;5031624;28;20029;-52
2022/02/05 07:12:08;;;;;;;29.25;2.78;;;;;;;4.36;79.24;101833.38;5032632;28;20033;-54
2022/02/05 07:14:40;;;;;;;26.77;3.28;;;;;;;4.33;79.98;101831.78;5035008;28;20020;-53
2022/02/05 07:17:22;;;;;;;19.85;2.40;;;;;;;4.33;80.44;101825.59;5044495;28;20054;-54
2022/02/05 07:20:02;;;;;;;16.77;2.28;;;;;;;4.27;80.52;101842.91;5036642;28;20424;-54
2022/02/05 07:22:33;;;;;;;23.85;2.80;;;;;;;4.26;81.12;101835.88;5038569;28;20037;-55
2022/02/05 07:29:12;;;;;;;34.00;3.47;;;;;;;4.24;81.16;101848.47;5033290;28;20030;-54
2022/02/05 07:30:28;;;;;;;28.40;2.60;;;;;;;4.29;81.03;101846.31;5036273;28;20133;-55
2022/02/05 07:32:54;;;;;;;21.33;2.35;;;;;;;4.28;81.23;101851.75;5048909;28;20104;-54
2022/02/05 07:35:20;;;;;;;23.88;3.67;;;;;;;4.29;80.66;101850.78;5041452;28;20489;-52
2022/02/05 07:37:45;;;;;;;19.88;2.47;;;;;;;4.27;80.96;101863.41;5036233;28;20043;-54
2022/02/05 07:40:10;;;;;;;25.25;3.88;;;;;;;4.26;81.28;101862.53;5039629;28;20489;-53
2022/02/05 07:42:36;;;;;;;30.98;3.88;;;;;;;4.30;80.80;101871.16;5036233;28;20047;-54
2022/02/05 07:45:01;;;;;;;25.92;3.97;;;;;;;4.31;81.19;101864.84;5050865;28;20024;-52
2022/02/05 07:47:32;;;;;;;31.60;3.22;;;;;;;4.37;81.36;101870.56;5050599;28;20025;-53
2022/02/05 07:49:57;;;;;;;25.58;2.78;;;;;;;4.44;81.07;101862.94;5042540;28;20169;-53
2022/02/05 07:52:23;;;;;;;22.27;3.47;;;;;;;4.55;80.03;101856.78;5045858;28;20111;-53
2022/02/05 07:54:48;;;;;;;21.52;2.50;;;;;;;4.69;79.86;101869.09;5031326;28;20095;-54
2022/02/05 07:57:13;;;;;;;32.35;3.33;;;;;;;4.79;79.21;101852.25;5046137;28;20079;-54
2022/02/05 07:59:40;;;;;;;19.88;2.45;;;;;;;4.91;78.51;101855.75;5040466;28;20459;-53
2022/02/05 08:02:06;;;;;;;26.75;3.25;;;;;;;5.02;77.91;101857.59;5030638;28;20133;-51
2022/02/05 08:04:32;;;;;;;19.33;2.83;;;;;;;5.15;76.90;101858.31;5045786;28;20378;-52
2022/02/05 08:06:58;;;;;;;19.20;2.22;;;;;;;5.37;75.72;101857.47;5033822;28;20106;-53
2022/02/05 08:09:29;;;;;;;17.30;2.50;;;;;;;5.38;75.05;101861.81;5031653;28;20062;-52
2022/02/05 08:12:01;;;;;;;15.95;2.35;;;;;;;5.57;74.42;101863.84;5031493;28;20029;-54
2022/02/05 08:14:28;;;;;;;22.20;2.13;;;;;;;5.67;73.79;101855.94;5031256;28;20042;-51
2022/02/05 08:17:08;;;;;;;19.00;2.25;;;;;;;5.77;73.74;101856.91;5030906;28;20032;-55
2022/02/05 08:19:33;;;;;;;33.13;3.45;;;;;;;5.67;73.92;101851.44;5044718;28;20087;-53
2022/02/05 08:21:59;;;;;;;19.13;2.60;;;;;;;5.65;73.94;101857.88;5053998;28;20028;-55
2022/02/05 08:24:24;;;;;;;20.10;2.40;;;;;;;5.63;74.66;101854.47;5050356;28;20091;-54
2022/02/05 08:26:49;;;;;;;18.80;2.53;;;;;;;5.50;75.94;101847.50;5040374;28;20033;-54
2022/02/05 08:29:17;;;;;;;19.73;2.40;;;;;;;5.53;76.05;101858.88;5033770;28;20029;-55
2022/02/05 08:31:42;;;;;;;25.87;2.17;;;;;;;5.92;75.28;101860.97;5033944;28;20025;-51
2022/02/05 08:34:08;;;;;;;15.32;2.50;;;;;;;6.53;73.87;101871.06;5036757;28;20451;-54
2022/02/05 08:36:40;;;;;;;26.27;2.70;;;;;;;6.96;71.17;101878.06;5050057;28;20037;-54
2022/02/05 08:39:05;;;;;;;16.23;4.05;;;;;;;7.34;69.65;101887.25;5051019;28;20033;-54
2022/02/05 08:41:30;;;;;;;20.90;2.70;;;;;;;8.11;67.52;101891.13;5048887;28;20496;-52
2022/02/05 08:43:56;;;;;;;18.13;2.13;;;;;;;8.21;66.12;101899.16;5035642;28;20045;-55
2022/02/05 08:46:21;;;;;;;19.23;2.70;;;;;;;8.89;64.09;101910.69;5037729;28;20025;-53
2022/02/05 08:48:46;;;;;;;13.77;2.65;;;;;;;9.16;63.95;101899.19;5038651;28;20123;-53
2022/02/05 08:51:14;;;;;;;25.40;3.05;;;;;;;9.80;62.11;101908.22;5035176;28;20029;-53
2022/02/05 08:53:39;;;;;;;14.27;2.35;;;;;;;9.65;61.00;101912.41;5048179;28;20024;-54
2022/02/05 08:56:06;;;;;;;30.55;3.00;;;;;;;9.58;60.65;101919.34;5049838;28;20039;-54
2022/02/05 08:58:31;;;;;;;21.83;2.88;;;;;;;9.60;60.29;101912.00;5058879;28;20031;-54
2022/02/05 09:01:17;;;;;;;23.48;2.90;;;;;;;9.36;61.42;101926.81;5047453;28;20021;-54
2022/02/05 09:06:30;;;;;;;29.75;3.35;;;;;;;9.42;60.67;101920.84;5041638;28;20059;-53
2022/02/05 09:09:09;;;;;;;16.33;2.50;;;;;;;10.06;59.24;101920.94;5049231;28;20040;-55
2022/02/05 09:14:36;;;;;;;25.25;3.00;;;;;;;9.36;59.29;101916.06;5048376;28;20062;-55
2022/02/05 09:17:02;;;;;;;24.73;3.72;;;;;;;9.32;60.56;101917.38;5032304;28;20043;-55
2022/02/05 09:19:32;;;;;;;30.05;3.80;;;;;;;8.93;61.19;101914.81;5032028;28;20123;-52
2022/02/05 09:21:57;;;;;;;20.02;2.30;;;;;;;8.85;61.94;101917.38;5045894;28;20056;-54
2022/02/05 09:24:24;;;;;;;13.63;2.60;;;;;;;9.40;60.50;101905.84;5039073;28;20064;-54
2022/02/05 09:26:57;;;;;;;24.10;2.80;;;;;;;9.23;61.61;101910.19;5030531;28;20124;-54
2022/02/05 09:29:25;;;;;;;27.95;3.33;;;;;;;9.48;61.39;101918.56;5029932;28;20025;-53
2022/02/05 09:31:52;;;;;;;28.35;3.65;;;;;;;9.81;60.72;101899.13;5027067;28;20059;-55
2022/02/05 09:34:17;;;;;;;23.70;3.85;;;;;;;10.14;60.33;101904.00;5035830;28;20039;-54
2022/02/05 09:36:43;;;;;;;17.50;2.45;;;;;;;10.47;57.96;101897.97;5034505;28;20389;-53
2022/02/05 09:39:10;;;;;;;26.17;2.90;;;;;;;10.35;57.78;101885.78;5029073;28;20032;-53
2022/02/05 09:41:36;;;;;;;25.60;3.95;;;;;;;10.03;58.95;101899.69;5029579;28;20080;-55
2022/02/05 09:44:03;;;;;;;24.33;3.42;;;;;;;9.63;59.41;101900.94;5029569;28;20025;-54
2022/02/05 09:46:29;;;;;;;19.63;2.93;;;;;;;9.93;59.71;101896.25;5038197;28;20032;-54
2022/02/05 09:48:55;;;;;;;31.23;4.63;;;;;;;10.02;59.27;101896.16;5049269;28;20305;-55
2022/02/05 09:51:28;;;;;;;32.47;2.83;;;;;;;9.66;60.08;101889.88;5049261;28;20027;-55
2022/02/05 09:53:55;;;;;;;23.05;2.97;;;;;;;9.59;60.07;101899.56;5041807;28;20033;-53
2022/02/05 09:56:23;;;;;;;19.25;2.35;;;;;;;9.39;60.72;101888.91;5037783;28;20036;-54
2022/02/05 09:58:49;;;;;;;30.40;2.53;;;;;;;9.40;61.87;101901.34;5048125;28;20472;-52
2022/02/05 10:01:18;;;;;;;27.20;2.47;;;;;;;9.45;62.22;101892.81;5049093;28;20056;-54
2022/02/05 10:03:44;;;;;;;23.52;2.78;;;;;;;9.68;61.12;101887.91;5038443;28;20533;-55
2022/02/05 10:06:40;;;;;;;24.75;2.72;;;;;;;9.93;59.43;101897.09;5033584;28;20042;-54
2022/02/05 10:09:14;;;;;;;18.15;2.63;;;;;;;10.48;58.57;101888.91;5027474;28;20099;-53
2022/02/05 10:11:49;;;;;;;28.15;2.50;;;;;;;10.21;58.57;101888.94;5034846;28;20036;-55
2022/02/05 10:14:25;;;;;;;26.98;2.80;;;;;;;10.02;59.20;101884.56;5036020;28;20385;-54
2022/02/05 10:17:03;;;;;;;26.75;3.00;;;;;;;9.91;59.74;101876.75;5042161;28;20370;-54
2022/02/05 10:19:48;;;;;;;;;;;;;;;9.93;60.05;101880.97;5044560;28;20124;-54
2022/02/05 10:22:14;;;;;;;28.70;3.53;;;;;;;9.88;58.96;101889.47;5031858;28;19909;-53
2022/02/05 10:24:55;;;;;;;32.28;2.88;;;;;;;9.82;58.80;101884.72;5044358;28;20447;-56
2022/02/05 10:27:39;;;;;;;18.30;2.75;;;;;;;9.65;59.88;101907.03;5042632;28;20426;-54
2022/02/05 10:30:25;;;;;;;23.67;2.97;;;;;;;9.37;60.75;101896.28;5035305;28;20119;-55
2022/02/05 10:33:06;;;;;;;29.65;3.78;;;;;;;9.59;61.14;101894.19;5036900;28;20033;-55
2022/02/05 10:36:09;;;;;;;27.15;2.75;;;;;;;8.79;61.96;101891.06;5031752;28;20061;-54
2022/02/05 10:38:53;;;;;;;30.00;3.20;;;;;;;8.39;63.22;101878.72;5031507;28;20044;-56
2022/02/05 10:44:21;;;;;;;25.52;2.35;;;;;;;8.66;63.37;101882.47;5041691;28;20405;-55
2022/02/05 10:46:52;;;;;;;25.58;2.78;;;;;;;8.48;63.21;101883.22;5046886;28;20401;-54
2022/02/05 10:49:38;;;;;;;29.15;3.17;;;;;;;8.68;63.77;101888.56;5037550;28;20033;-53
2022/02/05 10:52:04;;;;;;;30.40;3.22;;;;;;;8.82;62.72;101884.56;5048893;28;20045;-55
2022/02/05 10:54:49;;;;;;;28.80;2.80;;;;;;;8.63;63.15;101883.63;5042049;28;20087;-55
2022/02/05 10:57:23;;;;;;;23.20;2.70;;;;;;;8.70;62.83;101871.31;5035276;28;20117;-54
2022/02/05 11:08:09;;;;;;;22.45;2.85;;;;;;;8.82;61.99;101898.00;5049609;28;20432;-55
2022/02/05 11:21:14;;;;;;;33.17;5.13;;;;;;;8.58;64.09;101877.84;5037995;28;20041;-54
2022/02/05 11:23:43;;;;;;;32.88;3.05;;;;;;;8.56;64.65;101867.25;5040997;28;20033;-54
2022/02/05 11:26:08;;;;;;;30.85;3.17;;;;;;;8.57;63.39;101860.91;5038106;28;20029;-54
2022/02/05 11:28:46;;;;;;;19.83;2.60;;;;;;;8.64;63.37;101858.50;5037120;28;20047;-55
2022/02/05 11:31:29;;;;;;;23.10;2.20;;;;;;;8.80;63.09;101849.84;5035766;28;20103;-55
2022/02/05 11:34:36;;;;;;;32.63;3.38;;;;;;;9.08;62.19;101841.81;5050927;28;20067;-55
2022/02/05 11:37:09;;;;;;;29.23;2.88;;;;;;;9.29;61.71;101838.91;5047885;28;20123;-55
2022/02/05 11:39:52;;;;;;;35.65;3.40;;;;;;;8.77;62.06;101860.88;5041226;28;20436;-57
2022/02/05 11:42:37;;;;;;;24.85;3.15;;;;;;;8.61;62.53;101855.22;5035745;28;20037;-55
2022/02/05 11:45:24;;;;;;;28.40;3.35;;;;;;;8.30;64.17;101842.00;5036600;28;20048;-55
2022/02/05 11:47:50;;;;;;;22.48;2.63;;;;;;;8.51;63.91;101856.13;5047506;28;20435;-55
2022/02/05 11:50:21;;;;;;;35.20;3.47;;;;;;;8.30;63.35;101852.72;5042710;28;20041;-53
2022/02/05 11:52:46;;;;;;;26.88;2.85;;;;;;;8.32;64.54;101848.03;5045858;28;20025;-55
2022/02/05 11:55:29;;;;;;;28.17;2.80;;;;;;;8.51;63.33;101836.50;5033216;28;20087;-54
2022/02/05 11:57:55;;;;;;;24.38;2.47;;;;;;;8.78;62.49;101830.34;5036155;28;20034;-56
2022/02/05 12:00:30;;;;;;;35.13;3.17;;;;;;;8.62;63.94;101841.69;5050410;28;20439;-55
2022/02/05 12:03:01;;;;;;;22.40;3.53;;;;;;;8.29;66.00;101824.19;5040948;28;20027;-55
2022/02/05 12:05:32;;;;;;;36.40;4.13;;;;;;;8.32;66.68;101813.16;5057837;28;20037;-55
2022/02/05 12:08:03;;;;;;;28.65;3.00;;;;;;;8.57;65.29;101828.69;5052745;28;20061;-53
2022/02/05 12:10:41;;;;;;;38.13;3.85;;;;;;;8.13;65.86;101830.97;5050076;28;20021;-55
2022/02/05 12:13:24;;;;;;;27.35;2.95;;;;;;;8.28;66.01;101809.94;5049580;28;20036;-55
2022/02/05 12:15:55;;;;;;;27.20;2.83;;;;;;;7.95;67.31;101800.50;5040380;28;20477;-55
2022/02/05 12:18:26;;;;;;;36.88;3.65;;;;;;;7.91;67.23;101810.66;5040824;28;20577;-53
2022/02/05 12:20:57;;;;;;;32.38;3.80;;;;;;;7.81;67.24;101800.94;5033635;28;20021;-54
2022/02/05 12:26:19;;;;;;;31.40;3.25;;;;;;;7.87;68.16;101800.34;5047430;28;20044;-55
2022/02/05 12:28:47;;;;;;;28.90;2.67;;;;;;;7.80;68.87;101796.56;5035558;28;20417;-54
2022/02/05 12:31:18;;;;;;;32.97;3.47;;;;;;;8.12;68.60;101789.06;5043988;28;20489;-56
2022/02/05 12:33:48;;;;;;;36.63;2.90;;;;;;;8.66;67.12;101789.44;5044454;28;20102;-56
2022/02/05 12:36:17;;;;;;;23.20;2.83;;;;;;;8.83;65.90;101785.13;5053178;28;20377;-55
2022/02/05 12:38:44;;;;;;;30.50;4.05;;;;;;;8.70;65.71;101793.50;5047492;28;20048;-56
2022/02/05 12:41:12;;;;;;;26.23;2.92;;;;;;;8.51;65.77;101791.72;5043637;28;20032;-56
2022/02/05 12:44:07;;;;;;;33.60;4.00;;;;;;;8.64;65.01;101774.47;5034875;28;20091;-53
2022/02/05 12:47:20;;;;;;;25.58;2.95;;;;;;;8.67;64.64;101780.38;5040434;28;20048;-55
2022/02/05 12:49:54;;;;;;;29.95;3.10;;;;;;;8.54;64.70;101779.84;5032252;28;20049;-54
2022/02/05 12:52:25;;;;;;;33.25;3.60;;;;;;;8.79;63.96;101767.59;5034127;28;20061;-56
2022/02/05 12:54:57;;;;;;;30.05;3.03;;;;;;;8.79;65.21;101770.28;5049572;28;20551;-53
2022/02/05 12:57:23;;;;;;;26.90;2.42;;;;;;;8.51;64.46;101767.56;5052737;28;20033;-54
2022/02/05 12:59:49;;;;;;;23.80;2.60;;;;;;;8.12;65.14;101770.28;5038490;28;20059;-55
2022/02/05 13:02:16;;;;;;;36.60;3.08;;;;;;;8.12;66.04;101764.94;5039896;28;20381;-53
2022/02/05 13:04:49;;;;;;;24.30;2.60;;;;;;;8.14;66.12;101762.13;5049901;28;20029;-53
2022/02/05 13:07:21;;;;;;;21.73;2.60;;;;;;;8.32;65.38;101754.16;5041919;28;20469;-52
2022/02/05 13:10:07;;;;;;;17.52;2.28;;;;;;;8.24;65.28;101740.63;5032345;28;20473;-55
2022/02/05 13:12:37;;;;;;;31.35;2.92;;;;;;;8.41;63.95;101747.97;5032405;28;20021;-54
2022/02/05 13:15:26;;;;;;;31.38;3.58;;;;;;;8.37;63.78;101738.47;5032523;28;20120;-55
2022/02/05 13:36:15;;;;;;;36.88;3.45;;;;;;;8.81;66.60;101719.16;5032891;28;20124;-55
2022/02/05 13:41:47;;;;;;;22.60;2.70;;;;;;;8.36;65.88;101715.34;5032769;28;20048;-55
2022/02/05 13:44:17;;;;;;;28.13;3.00;;;;;;;8.17;67.37;101708.22;5032525;28;20026;-52
2022/02/05 13:46:42;;;;;;;38.30;3.83;;;;;;;8.07;68.89;101705.53;5031252;28;20025;-55
2022/02/05 13:49:19;;;;;;;29.98;3.20;;;;;;;7.94;69.27;101718.41;5032617;28;20034;-54
2022/02/05 13:51:44;;;;;;;28.10;2.67;;;;;;;7.83;70.60;101691.75;5014790;28;20490;-55
2022/02/05 13:54:10;;;;;;;25.88;3.30;;;;;;;7.76;70.35;101698.66;5032484;28;20081;-54
2022/02/05 13:56:36;;;;;;;33.83;3.25;;;;;;;7.61;71.07;101696.44;5032344;28;20025;-55
2022/02/05 13:59:02;;;;;;;32.83;3.40;;;;;;;7.68;71.00;101697.53;5032330;28;20048;-55
2022/02/05 14:01:35;;;;;;;32.58;3.53;;;;;;;7.74;71.49;101684.56;5032280;28;20507;-57
2022/02/05 14:04:25;;;;;;;48.85;5.00;;;;;;;7.92;71.06;101685.53;5032112;28;20053;-55
2022/02/05 14:06:55;;;;;;;33.30;3.38;;;;;;;7.82;70.33;101672.16;5031937;28;20512;-54
2022/02/05 14:09:26;;;;;;;23.67;2.88;;;;;;;7.63;70.81;101683.72;5032036;28;20434;-55
2022/02/05 14:11:53;;;;;;;27.48;3.85;;;;;;;7.69;71.23;101661.75;5032345;28;20032;-55
2022/02/05 14:14:30;;;;;;;23.65;2.25;;;;;;;8.07;70.59;101665.31;5032400;28;20184;-55
2022/02/05 14:16:55;;;;;;;32.80;3.90;;;;;;;8.23;69.44;101691.53;5032523;28;20025;-56
2022/02/05 14:19:23;;;;;;;34.08;3.80;;;;;;;8.14;70.08;101698.63;5030255;28;20028;-54
2022/02/05 14:21:50;;;;;;;31.05;3.63;;;;;;;7.87;70.66;101687.78;5031911;28;20032;-55
2022/02/05 14:24:17;;;;;;;36.63;4.05;;;;;;;7.88;70.61;101686.81;5032125;28;20387;-53
2022/02/05 14:26:54;;;;;;;38.83;3.55;;;;;;;7.78;71.40;101675.25;5031863;28;20331;-55
2022/02/05 14:29:20;;;;;;;36.43;3.30;;;;;;;7.74;72.42;101669.34;5031941;28;20067;-55
2022/02/05 14:31:49;;;;;;;48.05;4.95;;;;;;;7.61;72.53;101664.28;5031961;28;20113;-55
2022/02/05 14:34:21;;;;;;;56.85;4.63;;;;;;;7.57;72.88;101673.59;5030165;28;20504;-55
2022/02/05 14:42:13;;;;;;;41.15;3.22;;;;;;;7.60;73.17;101657.22;5031915;28;20092;-54